sensor_id;sensor_type;location;lat;lon;timestamp;temperature;humidity
67555;HTU21D;54385;53.516;49.456;2023-08-06T00:01:00;24.32;58.56
67555;HTU21D;54385;53.516;49.456;2023-08-06T00:03:26;24.36;58.41
67555;HTU21D;54385;53.516;49.456;2023-08-06T00:05:52;24.41;58.29
67555;HTU21D;54385;53.516;49.456;2023-08-06T00:08:19;24.44;58.19
67555;HTU21D;54385;53.516;49.456;2023-08-06T00:10:47;24.48;58.13
67555;HTU21D;54385;53.516;49.456;2023-08-06T00:13:14;24.51;57.95
67555;HTU21D;54385;53.516;49.456;2023-08-06T00:15:41;24.55;57.85
67555;HTU21D;54385;53.516;49.456;2023-08-06T00:18:08;24.50;56.35
67555;HTU21D;54385;53.516;49.456;2023-08-06T00:20:34;24.35;54.98
67555;HTU21D;54385;53.516;49.456;2023-08-06T00:23:01;24.17;53.77
67555;HTU21D;54385;53.516;49.456;2023-08-06T00:25:28;23.96;52.61
67555;HTU21D;54385;53.516;49.456;2023-08-06T00:27:55;23.74;51.59
67555;HTU21D;54385;53.516;49.456;2023-08-06T00:30:22;23.53;50.72
67555;HTU21D;54385;53.516;49.456;2023-08-06T00:32:49;23.31;50.12
67555;HTU21D;54385;53.516;49.456;2023-08-06T00:35:21;23.11;46.44
67555;HTU21D;54385;53.516;49.456;2023-08-06T00:37:47;22.95;49.31
67555;HTU21D;54385;53.516;49.456;2023-08-06T00:40:14;22.77;48.73
67555;HTU21D;54385;53.516;49.456;2023-08-06T00:42:40;22.63;48.15
67555;HTU21D;54385;53.516;49.456;2023-08-06T00:45:07;22.49;47.71
67555;HTU21D;54385;53.516;49.456;2023-08-06T00:47:34;22.39;49.72
67555;HTU21D;54385;53.516;49.456;2023-08-06T00:50:01;22.38;51.73
67555;HTU21D;54385;53.516;49.456;2023-08-06T00:52:27;22.41;53.36
67555;HTU21D;54385;53.516;49.456;2023-08-06T00:54:54;22.46;54.87
67555;HTU21D;54385;53.516;49.456;2023-08-06T00:57:24;22.52;57.13
67555;HTU21D;54385;53.516;49.456;2023-08-06T00:59:52;22.58;57.48
67555;HTU21D;54385;53.516;49.456;2023-08-06T01:02:20;22.66;58.52
67555;HTU21D;54385;53.516;49.456;2023-08-06T01:04:46;22.72;59.35
67555;HTU21D;54385;53.516;49.456;2023-08-06T01:12:34;23.01;60.44
67555;HTU21D;54385;53.516;49.456;2023-08-06T01:15:15;23.11;61.77
67555;HTU21D;54385;53.516;49.456;2023-08-06T01:17:44;23.23;60.66
67555;HTU21D;54385;53.516;49.456;2023-08-06T01:20:11;23.32;60.45
67555;HTU21D;54385;53.516;49.456;2023-08-06T01:22:38;23.42;60.44
67555;HTU21D;54385;53.516;49.456;2023-08-06T01:25:05;23.51;60.41
67555;HTU21D;54385;53.516;49.456;2023-08-06T01:27:48;23.61;60.52
67555;HTU21D;54385;53.516;49.456;2023-08-06T01:30:26;23.74;60.58
67555;HTU21D;54385;53.516;49.456;2023-08-06T01:33:00;23.82;59.93
67555;HTU21D;54385;53.516;49.456;2023-08-06T01:35:32;23.89;59.44
67555;HTU21D;54385;53.516;49.456;2023-08-06T01:38:00;24.00;59.22
67555;HTU21D;54385;53.516;49.456;2023-08-06T01:40:27;24.09;59.06
67555;HTU21D;54385;53.516;49.456;2023-08-06T01:42:55;24.17;58.83
67555;HTU21D;54385;53.516;49.456;2023-08-06T01:45:22;24.23;58.62
67555;HTU21D;54385;53.516;49.456;2023-08-06T01:47:49;24.31;58.45
67555;HTU21D;54385;53.516;49.456;2023-08-06T01:50:15;24.39;58.25
67555;HTU21D;54385;53.516;49.456;2023-08-06T01:52:44;24.47;58.02
67555;HTU21D;54385;53.516;49.456;2023-08-06T01:55:11;24.55;57.84
67555;HTU21D;54385;53.516;49.456;2023-08-06T01:57:37;24.60;57.64
67555;HTU21D;54385;53.516;49.456;2023-08-06T02:00:04;24.69;57.47
67555;HTU21D;54385;53.516;49.456;2023-08-06T02:02:33;24.72;57.32
67555;HTU21D;54385;53.516;49.456;2023-08-06T02:05:00;24.80;57.09
67555;HTU21D;54385;53.516;49.456;2023-08-06T02:07:26;24.88;56.87
67555;HTU21D;54385;53.516;49.456;2023-08-06T02:09:53;24.94;56.68
67555;HTU21D;54385;53.516;49.456;2023-08-06T02:12:19;25.00;56.46
67555;HTU21D;54385;53.516;49.456;2023-08-06T02:14:46;25.06;56.28
67555;HTU21D;54385;53.516;49.456;2023-08-06T02:17:12;25.09;55.11
67555;HTU21D;54385;53.516;49.456;2023-08-06T02:19:39;25.01;53.73
67555;HTU21D;54385;53.516;49.456;2023-08-06T02:22:05;24.86;52.39
67555;HTU21D;54385;53.516;49.456;2023-08-06T02:24:34;24.68;51.21
67555;HTU21D;54385;53.516;49.456;2023-08-06T02:27:01;24.50;50.18
67555;HTU21D;54385;53.516;49.456;2023-08-06T02:29:27;24.29;49.21
67555;HTU21D;54385;53.516;49.456;2023-08-06T02:31:56;24.10;48.44
67555;HTU21D;54385;53.516;49.456;2023-08-06T02:34:29;23.88;47.78
67555;HTU21D;54385;53.516;49.456;2023-08-06T02:36:55;23.69;47.25
67555;HTU21D;54385;53.516;49.456;2023-08-06T02:39:22;23.51;46.60
67555;HTU21D;54385;53.516;49.456;2023-08-06T02:41:48;23.35;46.31
67555;HTU21D;54385;53.516;49.456;2023-08-06T02:44:14;23.21;45.85
67555;HTU21D;54385;53.516;49.456;2023-08-06T02:46:41;23.11;46.86
67555;HTU21D;54385;53.516;49.456;2023-08-06T02:49:07;23.14;48.76
67555;HTU21D;54385;53.516;49.456;2023-08-06T02:51:34;23.23;50.27
67555;HTU21D;54385;53.516;49.456;2023-08-06T02:54:00;23.34;51.68
67555;HTU21D;54385;53.516;49.456;2023-08-06T02:56:27;23.46;52.71
67555;HTU21D;54385;53.516;49.456;2023-08-06T02:58:54;23.59;53.78
67555;HTU21D;54385;53.516;49.456;2023-08-06T03:01:21;23.72;54.65
67555;HTU21D;54385;53.516;49.456;2023-08-06T03:03:49;23.84;55.33
67555;HTU21D;54385;53.516;49.456;2023-08-06T03:06:16;23.96;55.84
67555;HTU21D;54385;53.516;49.456;2023-08-06T03:08:42;24.05;56.26
67555;HTU21D;54385;53.516;49.456;2023-08-06T03:11:09;24.13;56.49
67555;HTU21D;54385;53.516;49.456;2023-08-06T03:13:35;24.19;56.64
67555;HTU21D;54385;53.516;49.456;2023-08-06T03:16:02;24.34;56.70
67555;HTU21D;54385;53.516;49.456;2023-08-06T03:18:29;24.49;56.55
67555;HTU21D;54385;53.516;49.456;2023-08-06T03:20:55;24.63;56.32
67555;HTU21D;54385;53.516;49.456;2023-08-06T03:23:23;24.79;56.16
67555;HTU21D;54385;53.516;49.456;2023-08-06T03:25:49;24.90;55.87
67555;HTU21D;54385;53.516;49.456;2023-08-06T03:28:16;25.03;55.70
67555;HTU21D;54385;53.516;49.456;2023-08-06T03:30:42;25.10;55.51
67555;HTU21D;54385;53.516;49.456;2023-08-06T03:33:09;25.21;55.25
67555;HTU21D;54385;53.516;49.456;2023-08-06T03:35:41;25.36;54.93
67555;HTU21D;54385;53.516;49.456;2023-08-06T03:38:13;25.46;54.61
67555;HTU21D;54385;53.516;49.456;2023-08-06T03:40:46;25.60;54.31
67555;HTU21D;54385;53.516;49.456;2023-08-06T03:43:18;25.67;54.06
67555;HTU21D;54385;53.516;49.456;2023-08-06T03:45:50;25.77;53.88
67555;HTU21D;54385;53.516;49.456;2023-08-06T03:48:22;25.86;53.60
67555;HTU21D;54385;53.516;49.456;2023-08-06T03:50:53;25.92;53.35
67555;HTU21D;54385;53.516;49.456;2023-08-06T03:53:25;25.99;53.20
67555;HTU21D;54385;53.516;49.456;2023-08-06T03:55:57;26.08;52.99
67555;HTU21D;54385;53.516;49.456;2023-08-06T03:58:31;26.15;52.82
67555;HTU21D;54385;53.516;49.456;2023-08-06T04:01:03;26.23;52.58
67555;HTU21D;54385;53.516;49.456;2023-08-06T04:03:35;26.26;52.33
67555;HTU21D;54385;53.516;49.456;2023-08-06T04:06:07;26.32;51.98
67555;HTU21D;54385;53.516;49.456;2023-08-06T04:08:39;26.33;50.46
67555;HTU21D;54385;53.516;49.456;2023-08-06T04:11:11;26.21;49.19
67555;HTU21D;54385;53.516;49.456;2023-08-06T04:13:44;26.04;47.93
67555;HTU21D;54385;53.516;49.456;2023-08-06T04:16:16;25.83;43.96
67555;HTU21D;54385;53.516;49.456;2023-08-06T04:18:48;25.66;46.81
67555;HTU21D;54385;53.516;49.456;2023-08-06T04:21:19;25.47;42.76
67555;HTU21D;54385;53.516;49.456;2023-08-06T04:23:51;25.29;45.62
67555;HTU21D;54385;53.516;49.456;2023-08-06T04:26:23;25.14;44.88
67555;HTU21D;54385;53.516;49.456;2023-08-06T04:28:55;24.97;44.20
67555;HTU21D;54385;53.516;49.456;2023-08-06T04:31:28;24.84;43.17
67555;HTU21D;54385;53.516;49.456;2023-08-06T04:34:00;24.73;43.11
67555;HTU21D;54385;53.516;49.456;2023-08-06T04:36:35;24.64;44.01
67555;HTU21D;54385;53.516;49.456;2023-08-06T04:39:07;24.71;45.68
67555;HTU21D;54385;53.516;49.456;2023-08-06T04:41:39;24.79;47.01
67555;HTU21D;54385;53.516;49.456;2023-08-06T04:44:10;24.90;48.43
67555;HTU21D;54385;53.516;49.456;2023-08-06T04:46:47;25.02;49.60
67555;HTU21D;54385;53.516;49.456;2023-08-06T04:49:20;25.15;51.01
67555;HTU21D;54385;53.516;49.456;2023-08-06T04:51:53;25.29;51.14
67555;HTU21D;54385;53.516;49.456;2023-08-06T04:54:27;25.42;51.87
67555;HTU21D;54385;53.516;49.456;2023-08-06T04:56:59;25.54;52.19
67555;HTU21D;54385;53.516;49.456;2023-08-06T04:59:31;25.63;52.46
67555;HTU21D;54385;53.516;49.456;2023-08-06T05:02:06;25.75;52.69
67555;HTU21D;54385;53.516;49.456;2023-08-06T05:04:37;25.83;52.82
67555;HTU21D;54385;53.516;49.456;2023-08-06T05:07:10;25.84;53.88
67555;HTU21D;54385;53.516;49.456;2023-08-06T05:09:41;25.90;52.88
67555;HTU21D;54385;53.516;49.456;2023-08-06T05:12:13;26.04;52.75
67555;HTU21D;54385;53.516;49.456;2023-08-06T05:14:45;26.12;52.66
67555;HTU21D;54385;53.516;49.456;2023-08-06T05:17:22;26.20;52.59
67555;HTU21D;54385;53.516;49.456;2023-08-06T05:19:54;26.28;52.43
67555;HTU21D;54385;53.516;49.456;2023-08-06T05:22:26;26.37;52.22
67555;HTU21D;54385;53.516;49.456;2023-08-06T05:24:58;26.49;51.99
67555;HTU21D;54385;53.516;49.456;2023-08-06T05:27:29;26.57;51.79
67555;HTU21D;54385;53.516;49.456;2023-08-06T05:30:01;26.65;51.57
67555;HTU21D;54385;53.516;49.456;2023-08-06T05:32:33;26.73;51.37
67555;HTU21D;54385;53.516;49.456;2023-08-06T05:35:05;26.82;51.15
67555;HTU21D;54385;53.516;49.456;2023-08-06T05:37:37;26.91;50.95
67555;HTU21D;54385;53.516;49.456;2023-08-06T05:40:09;26.98;50.69
67555;HTU21D;54385;53.516;49.456;2023-08-06T05:42:41;27.08;50.47
67555;HTU21D;54385;53.516;49.456;2023-08-06T05:45:13;27.12;50.30
67555;HTU21D;54385;53.516;49.456;2023-08-06T05:47:45;27.21;48.96
67555;HTU21D;54385;53.516;49.456;2023-08-06T05:50:17;27.20;47.47
67555;HTU21D;54385;53.516;49.456;2023-08-06T05:52:48;27.06;46.39
67555;HTU21D;54385;53.516;49.456;2023-08-06T05:55:20;26.87;45.31
67555;HTU21D;54385;53.516;49.456;2023-08-06T05:57:52;26.67;44.40
67555;HTU21D;54385;53.516;49.456;2023-08-06T06:00:24;26.50;43.65
67555;HTU21D;54385;53.516;49.456;2023-08-06T06:02:55;26.35;43.19
67555;HTU21D;54385;53.516;49.456;2023-08-06T06:05:27;26.19;42.58
67555;HTU21D;54385;53.516;49.456;2023-08-06T06:07:59;26.02;42.26
67555;HTU21D;54385;53.516;49.456;2023-08-06T06:10:31;25.84;41.76
67555;HTU21D;54385;53.516;49.456;2023-08-06T06:13:02;25.73;41.45
67555;HTU21D;54385;53.516;49.456;2023-08-06T06:15:34;25.60;41.02
67555;HTU21D;54385;53.516;49.456;2023-08-06T06:18:06;25.62;43.04
67555;HTU21D;54385;53.516;49.456;2023-08-06T06:20:38;25.68;44.69
67555;HTU21D;54385;53.516;49.456;2023-08-06T06:23:09;25.76;46.15
67555;HTU21D;54385;53.516;49.456;2023-08-06T06:25:49;25.88;49.23
67555;HTU21D;54385;53.516;49.456;2023-08-06T06:28:22;26.01;48.30
67555;HTU21D;54385;53.516;49.456;2023-08-06T06:31:00;26.15;50.45
67555;HTU21D;54385;53.516;49.456;2023-08-06T06:33:32;26.24;49.72
67555;HTU21D;54385;53.516;49.456;2023-08-06T06:36:04;26.38;50.12
67555;HTU21D;54385;53.516;49.456;2023-08-06T06:38:36;26.47;50.51
67555;HTU21D;54385;53.516;49.456;2023-08-06T06:41:08;26.52;50.80
67555;HTU21D;54385;53.516;49.456;2023-08-06T06:43:39;26.60;50.98
67555;HTU21D;54385;53.516;49.456;2023-08-06T06:46:14;26.65;51.10
67555;HTU21D;54385;53.516;49.456;2023-08-06T06:48:45;26.73;51.09
67555;HTU21D;54385;53.516;49.456;2023-08-06T06:51:17;26.80;51.07
67555;HTU21D;54385;53.516;49.456;2023-08-06T06:53:49;26.87;50.96
67555;HTU21D;54385;53.516;49.456;2023-08-06T06:56:20;26.95;50.83
67555;HTU21D;54385;53.516;49.456;2023-08-06T06:58:52;27.02;50.69
67555;HTU21D;54385;53.516;49.456;2023-08-06T07:01:24;27.10;50.51
67555;HTU21D;54385;53.516;49.456;2023-08-06T07:03:55;27.20;50.27
67555;HTU21D;54385;53.516;49.456;2023-08-06T07:06:28;27.27;50.06
67555;HTU21D;54385;53.516;49.456;2023-08-06T07:09:02;27.36;49.85
67555;HTU21D;54385;53.516;49.456;2023-08-06T07:11:43;27.44;49.61
67555;HTU21D;54385;53.516;49.456;2023-08-06T07:14:16;27.52;49.40
67555;HTU21D;54385;53.516;49.456;2023-08-06T07:16:48;27.65;48.61
67555;HTU21D;54385;53.516;49.456;2023-08-06T07:19:20;27.69;46.96
67555;HTU21D;54385;53.516;49.456;2023-08-06T07:21:52;27.60;45.66
67555;HTU21D;54385;53.516;49.456;2023-08-06T07:24:24;27.45;44.67
67555;HTU21D;54385;53.516;49.456;2023-08-06T07:26:55;27.27;43.68
67555;HTU21D;54385;53.516;49.456;2023-08-06T07:29:27;27.10;42.98
67555;HTU21D;54385;53.516;49.456;2023-08-06T07:31:59;26.92;42.21
67555;HTU21D;54385;53.516;49.456;2023-08-06T07:34:30;26.77;41.84
67555;HTU21D;54385;53.516;49.456;2023-08-06T07:37:02;26.61;41.35
67555;HTU21D;54385;53.516;49.456;2023-08-06T07:39:34;26.48;40.84
67555;HTU21D;54385;53.516;49.456;2023-08-06T07:42:10;26.34;40.30
67555;HTU21D;54385;53.516;49.456;2023-08-06T07:44:42;26.24;40.14
67555;HTU21D;54385;53.516;49.456;2023-08-06T07:47:14;26.17;41.72
67555;HTU21D;54385;53.516;49.456;2023-08-06T07:49:46;26.22;43.26
67555;HTU21D;54385;53.516;49.456;2023-08-06T07:52:18;26.34;44.50
67555;HTU21D;54385;53.516;49.456;2023-08-06T07:54:49;26.45;45.73
67555;HTU21D;54385;53.516;49.456;2023-08-06T07:57:21;26.57;46.76
67555;HTU21D;54385;53.516;49.456;2023-08-06T07:59:53;26.69;47.76
67555;HTU21D;54385;53.516;49.456;2023-08-06T08:02:28;26.82;48.30
67555;HTU21D;54385;53.516;49.456;2023-08-06T08:05:01;26.97;48.69
67555;HTU21D;54385;53.516;49.456;2023-08-06T08:07:33;27.10;49.01
67555;HTU21D;54385;53.516;49.456;2023-08-06T08:10:05;27.16;49.39
67555;HTU21D;54385;53.516;49.456;2023-08-06T08:12:37;27.25;49.58
67555;HTU21D;54385;53.516;49.456;2023-08-06T08:15:09;27.35;49.62
67555;HTU21D;54385;53.516;49.456;2023-08-06T08:17:41;27.45;50.17
67555;HTU21D;54385;53.516;49.456;2023-08-06T08:20:14;27.58;49.15
67555;HTU21D;54385;53.516;49.456;2023-08-06T08:22:46;27.67;49.06
67555;HTU21D;54385;53.516;49.456;2023-08-06T08:25:18;27.82;48.79
67555;HTU21D;54385;53.516;49.456;2023-08-06T08:27:50;28.00;48.41
67555;HTU21D;54385;53.516;49.456;2023-08-06T08:30:22;28.17;47.97
67555;HTU21D;54385;53.516;49.456;2023-08-06T08:32:56;28.29;47.69
67555;HTU21D;54385;53.516;49.456;2023-08-06T08:35:27;28.42;47.38
67555;HTU21D;54385;53.516;49.456;2023-08-06T08:37:59;28.55;45.99
67555;HTU21D;54385;53.516;49.456;2023-08-06T08:40:32;28.63;43.65
67555;HTU21D;54385;53.516;49.456;2023-08-06T08:43:05;28.58;42.91
67555;HTU21D;54385;53.516;49.456;2023-08-06T08:45:39;28.43;40.95
67555;HTU21D;54385;53.516;49.456;2023-08-06T08:48:12;28.24;41.09
67555;HTU21D;54385;53.516;49.456;2023-08-06T08:50:48;28.01;40.45
67555;HTU21D;54385;53.516;49.456;2023-08-06T08:53:21;27.85;40.10
67555;HTU21D;54385;53.516;49.456;2023-08-06T08:55:56;27.61;39.78
67555;HTU21D;54385;53.516;49.456;2023-08-06T08:58:28;27.41;39.59
67555;HTU21D;54385;53.516;49.456;2023-08-06T09:01:00;27.26;39.10
67555;HTU21D;54385;53.516;49.456;2023-08-06T09:03:33;27.14;38.72
67555;HTU21D;54385;53.516;49.456;2023-08-06T09:06:06;27.05;38.46
67555;HTU21D;54385;53.516;49.456;2023-08-06T09:08:43;26.93;37.50
67555;HTU21D;54385;53.516;49.456;2023-08-06T09:11:19;26.90;37.79
67555;HTU21D;54385;53.516;49.456;2023-08-06T09:13:53;26.81;37.46
67555;HTU21D;54385;53.516;49.456;2023-08-06T09:16:25;26.79;38.59
67555;HTU21D;54385;53.516;49.456;2023-08-06T09:19:07;26.92;41.70
67555;HTU21D;54385;53.516;49.456;2023-08-06T09:21:42;27.16;42.32
67555;HTU21D;54385;53.516;49.456;2023-08-06T09:24:14;27.38;42.69
67555;HTU21D;54385;53.516;49.456;2023-08-06T09:26:46;27.45;43.71
67555;HTU21D;54385;53.516;49.456;2023-08-06T09:29:17;27.55;46.86
67555;HTU21D;54385;53.516;49.456;2023-08-06T09:31:50;27.50;45.78
67555;HTU21D;54385;53.516;49.456;2023-08-06T09:34:25;27.63;46.02
67555;HTU21D;54385;53.516;49.456;2023-08-06T09:36:56;27.57;46.86
67555;HTU21D;54385;53.516;49.456;2023-08-06T09:39:30;27.71;47.47
67555;HTU21D;54385;53.516;49.456;2023-08-06T09:42:02;27.91;47.16
67555;HTU21D;54385;53.516;49.456;2023-08-06T09:44:34;27.99;47.30
67555;HTU21D;54385;53.516;49.456;2023-08-06T09:47:06;28.16;48.09
67555;HTU21D;54385;53.516;49.456;2023-08-06T09:49:42;28.26;47.51
67555;HTU21D;54385;53.516;49.456;2023-08-06T09:52:14;28.48;46.64
67555;HTU21D;54385;53.516;49.456;2023-08-06T09:54:47;28.54;46.69
67555;HTU21D;54385;53.516;49.456;2023-08-06T09:57:20;28.68;46.45
67555;HTU21D;54385;53.516;49.456;2023-08-06T09:59:52;29.12;45.54
67555;HTU21D;54385;53.516;49.456;2023-08-06T10:02:25;29.47;44.72
67555;HTU21D;54385;53.516;49.456;2023-08-06T10:04:58;29.58;44.46
67555;HTU21D;54385;53.516;49.456;2023-08-06T10:07:31;29.61;43.34
67555;HTU21D;54385;53.516;49.456;2023-08-06T10:10:03;29.57;42.00
67555;HTU21D;54385;53.516;49.456;2023-08-06T10:12:41;29.60;39.18
67555;HTU21D;54385;53.516;49.456;2023-08-06T10:15:20;29.38;38.98
67555;HTU21D;54385;53.516;49.456;2023-08-06T10:17:56;29.34;38.13
67555;HTU21D;54385;53.516;49.456;2023-08-06T10:20:35;29.38;36.60
67555;HTU21D;54385;53.516;49.456;2023-08-06T10:23:07;29.51;37.22
67555;HTU21D;54385;53.516;49.456;2023-08-06T10:25:42;29.58;35.09
67555;HTU21D;54385;53.516;49.456;2023-08-06T10:28:14;29.46;35.82
67555;HTU21D;54385;53.516;49.456;2023-08-06T10:30:47;29.46;35.15
67555;HTU21D;54385;53.516;49.456;2023-08-06T10:33:19;29.66;34.28
67555;HTU21D;54385;53.516;49.456;2023-08-06T10:36:01;29.71;32.38
67555;HTU21D;54385;53.516;49.456;2023-08-06T10:38:33;29.56;33.67
67555;HTU21D;54385;53.516;49.456;2023-08-06T10:41:02;29.31;33.71
67555;HTU21D;54385;53.516;49.456;2023-08-06T10:43:35;29.28;32.44
67555;HTU21D;54385;53.516;49.456;2023-08-06T10:46:09;29.34;32.14
67555;HTU21D;54385;53.516;49.456;2023-08-06T10:48:41;29.50;31.72
67555;HTU21D;54385;53.516;49.456;2023-08-06T10:51:09;29.72;32.02
67555;HTU21D;54385;53.516;49.456;2023-08-06T10:53:38;29.94;31.54
67555;HTU21D;54385;53.516;49.456;2023-08-06T10:56:17;30.33;31.68
67555;HTU21D;54385;53.516;49.456;2023-08-06T10:58:45;30.66;32.59
67555;HTU21D;54385;53.516;49.456;2023-08-06T11:01:13;30.91;33.42
67555;HTU21D;54385;53.516;49.456;2023-08-06T11:03:41;30.87;34.63
67555;HTU21D;54385;53.516;49.456;2023-08-06T11:06:08;31.04;35.61
67555;HTU21D;54385;53.516;49.456;2023-08-06T11:08:42;31.74;36.53
67555;HTU21D;54385;53.516;49.456;2023-08-06T11:11:15;32.60;35.09
67555;HTU21D;54385;53.516;49.456;2023-08-06T11:13:47;33.23;34.75
67555;HTU21D;54385;53.516;49.456;2023-08-06T11:16:23;32.94;35.73
67555;HTU21D;54385;53.516;49.456;2023-08-06T11:18:53;33.01;35.51
67555;HTU21D;54385;53.516;49.456;2023-08-06T11:21:21;34.45;33.25
67555;HTU21D;54385;53.516;49.456;2023-08-06T11:23:48;35.97;30.87
67555;HTU21D;54385;53.516;49.456;2023-08-06T11:26:19;37.63;27.78
67555;HTU21D;54385;53.516;49.456;2023-08-06T11:28:46;39.26;24.98
67555;HTU21D;54385;53.516;49.456;2023-08-06T11:31:23;40.58;20.58
67555;HTU21D;54385;53.516;49.456;2023-08-06T11:33:51;41.35;20.37
67555;HTU21D;54385;53.516;49.456;2023-08-06T11:36:31;41.57;17.96
67555;HTU21D;54385;53.516;49.456;2023-08-06T11:39:01;40.45;19.25
67555;HTU21D;54385;53.516;49.456;2023-08-06T11:41:29;38.97;21.47
67555;HTU21D;54385;53.516;49.456;2023-08-06T11:43:57;39.26;20.76
67555;HTU21D;54385;53.516;49.456;2023-08-06T11:46:24;40.51;18.98
67555;HTU21D;54385;53.516;49.456;2023-08-06T11:48:55;41.69;16.19
67555;HTU21D;54385;53.516;49.456;2023-08-06T11:51:23;42.60;16.00
67555;HTU21D;54385;53.516;49.456;2023-08-06T11:53:51;43.26;15.15
67555;HTU21D;54385;53.516;49.456;2023-08-06T11:56:17;43.80;14.39
67555;HTU21D;54385;53.516;49.456;2023-08-06T11:58:44;44.24;13.83
67555;HTU21D;54385;53.516;49.456;2023-08-06T12:01:14;44.68;13.26
67555;HTU21D;54385;53.516;49.456;2023-08-06T12:03:41;44.99;12.81
67555;HTU21D;54385;53.516;49.456;2023-08-06T12:06:08;45.22;12.43
67555;HTU21D;54385;53.516;49.456;2023-08-06T12:08:35;45.47;12.15
67555;HTU21D;54385;53.516;49.456;2023-08-06T12:11:01;45.69;11.85
67555;HTU21D;54385;53.516;49.456;2023-08-06T12:13:28;45.91;11.54
67555;HTU21D;54385;53.516;49.456;2023-08-06T12:15:55;46.12;11.25
67555;HTU21D;54385;53.516;49.456;2023-08-06T12:18:23;46.29;11.04
67555;HTU21D;54385;53.516;49.456;2023-08-06T12:20:50;46.47;10.84
67555;HTU21D;54385;53.516;49.456;2023-08-06T12:23:17;46.62;10.60
67555;HTU21D;54385;53.516;49.456;2023-08-06T12:25:44;46.80;10.45
67555;HTU21D;54385;53.516;49.456;2023-08-06T12:28:11;46.91;10.27
67555;HTU21D;54385;53.516;49.456;2023-08-06T12:30:39;46.95;10.17
67555;HTU21D;54385;53.516;49.456;2023-08-06T12:33:09;46.99;10.06
67555;HTU21D;54385;53.516;49.456;2023-08-06T12:35:36;47.06;10.01
67555;HTU21D;54385;53.516;49.456;2023-08-06T12:38:04;47.14;9.88
67555;HTU21D;54385;53.516;49.456;2023-08-06T12:40:31;47.20;9.78
67555;HTU21D;54385;53.516;49.456;2023-08-06T12:42:59;47.24;9.69
67555;HTU21D;54385;53.516;49.456;2023-08-06T12:45:26;47.29;9.65
67555;HTU21D;54385;53.516;49.456;2023-08-06T12:47:52;47.33;9.57
67555;HTU21D;54385;53.516;49.456;2023-08-06T12:50:20;47.39;9.47
67555;HTU21D;54385;53.516;49.456;2023-08-06T12:52:46;47.52;9.39
67555;HTU21D;54385;53.516;49.456;2023-08-06T12:55:13;47.50;9.34
67555;HTU21D;54385;53.516;49.456;2023-08-06T12:57:40;47.57;9.26
67555;HTU21D;54385;53.516;49.456;2023-08-06T13:00:07;47.65;9.19
67555;HTU21D;54385;53.516;49.456;2023-08-06T13:02:34;47.65;9.14
67555;HTU21D;54385;53.516;49.456;2023-08-06T13:05:00;47.65;9.11
67555;HTU21D;54385;53.516;49.456;2023-08-06T13:07:31;47.55;9.18
67555;HTU21D;54385;53.516;49.456;2023-08-06T13:10:01;47.55;9.14
67555;HTU21D;54385;53.516;49.456;2023-08-06T13:12:31;47.66;9.05
67555;HTU21D;54385;53.516;49.456;2023-08-06T13:14:58;47.66;9.05
67555;HTU21D;54385;53.516;49.456;2023-08-06T13:17:25;47.64;9.05
67555;HTU21D;54385;53.516;49.456;2023-08-06T13:19:53;47.64;9.07
67555;HTU21D;54385;53.516;49.456;2023-08-06T13:22:21;47.66;9.02
67555;HTU21D;54385;53.516;49.456;2023-08-06T13:24:51;47.63;9.05
67555;HTU21D;54385;53.516;49.456;2023-08-06T13:27:21;47.56;9.06
67555;HTU21D;54385;53.516;49.456;2023-08-06T13:29:48;47.49;9.12
67555;HTU21D;54385;53.516;49.456;2023-08-06T13:32:14;47.42;9.15
67555;HTU21D;54385;53.516;49.456;2023-08-06T13:34:40;47.50;9.07
67555;HTU21D;54385;53.516;49.456;2023-08-06T13:37:07;47.49;9.09
67555;HTU21D;54385;53.516;49.456;2023-08-06T13:39:33;47.48;9.08
67555;HTU21D;54385;53.516;49.456;2023-08-06T13:42:00;47.38;9.14
67555;HTU21D;54385;53.516;49.456;2023-08-06T13:44:26;47.29;9.21
67555;HTU21D;54385;53.516;49.456;2023-08-06T13:46:55;47.28;8.89
67555;HTU21D;54385;53.516;49.456;2023-08-06T13:49:23;47.19;9.20
67555;HTU21D;54385;53.516;49.456;2023-08-06T13:51:50;46.67;9.56
67555;HTU21D;54385;53.516;49.456;2023-08-06T13:54:16;46.10;9.96
67555;HTU21D;54385;53.516;49.456;2023-08-06T13:56:43;44.68;11.01
67555;HTU21D;54385;53.516;49.456;2023-08-06T13:59:12;42.38;12.88
67555;HTU21D;54385;53.516;49.456;2023-08-06T14:01:40;40.18;14.87
67555;HTU21D;54385;53.516;49.456;2023-08-06T14:04:06;38.50;16.56
67555;HTU21D;54385;53.516;49.456;2023-08-06T14:06:33;37.02;18.13
67555;HTU21D;54385;53.516;49.456;2023-08-06T14:09:01;35.85;19.51
67555;HTU21D;54385;53.516;49.456;2023-08-06T14:11:28;35.70;19.67
67555;HTU21D;54385;53.516;49.456;2023-08-06T14:13:54;35.23;20.11
67555;HTU21D;54385;53.516;49.456;2023-08-06T14:16:21;34.29;21.21
67555;HTU21D;54385;53.516;49.456;2023-08-06T14:18:51;33.46;22.42
67555;HTU21D;54385;53.516;49.456;2023-08-06T14:21:17;32.58;23.37
67555;HTU21D;54385;53.516;49.456;2023-08-06T14:23:44;32.12;24.00
67555;HTU21D;54385;53.516;49.456;2023-08-06T14:26:11;31.74;24.53
67555;HTU21D;54385;53.516;49.456;2023-08-06T14:28:40;31.60;24.66
67555;HTU21D;54385;53.516;49.456;2023-08-06T14:31:07;31.04;25.49
67555;HTU21D;54385;53.516;49.456;2023-08-06T14:33:33;30.51;26.21
67555;HTU21D;54385;53.516;49.456;2023-08-06T14:36:00;29.93;27.07
67555;HTU21D;54385;53.516;49.456;2023-08-06T14:38:27;29.34;28.03
67555;HTU21D;54385;53.516;49.456;2023-08-06T14:40:54;28.87;28.74
67555;HTU21D;54385;53.516;49.456;2023-08-06T14:43:20;28.52;29.33
67555;HTU21D;54385;53.516;49.456;2023-08-06T14:45:47;28.24;29.80
67555;HTU21D;54385;53.516;49.456;2023-08-06T14:48:13;28.17;29.84
67555;HTU21D;54385;53.516;49.456;2023-08-06T14:50:40;27.98;30.17
67555;HTU21D;54385;53.516;49.456;2023-08-06T14:53:07;28.40;29.58
67555;HTU21D;54385;53.516;49.456;2023-08-06T14:55:34;29.07;28.42
67555;HTU21D;54385;53.516;49.456;2023-08-06T14:58:01;29.00;28.41
67555;HTU21D;54385;53.516;49.456;2023-08-06T15:00:27;28.50;29.12
67555;HTU21D;54385;53.516;49.456;2023-08-06T15:02:54;28.00;29.92
67555;HTU21D;54385;53.516;49.456;2023-08-06T15:05:20;27.47;30.80
67555;HTU21D;54385;53.516;49.456;2023-08-06T15:07:47;27.11;33.49
67555;HTU21D;54385;53.516;49.456;2023-08-06T15:10:14;26.90;36.10
67555;HTU21D;54385;53.516;49.456;2023-08-06T15:12:41;26.77;37.65
67555;HTU21D;54385;53.516;49.456;2023-08-06T15:15:08;26.65;39.23
67555;HTU21D;54385;53.516;49.456;2023-08-06T15:17:35;26.63;40.26
67555;HTU21D;54385;53.516;49.456;2023-08-06T15:20:01;26.58;41.26
67555;HTU21D;54385;53.516;49.456;2023-08-06T15:22:28;26.61;41.97
67555;HTU21D;54385;53.516;49.456;2023-08-06T15:25:02;26.61;43.06